RWL140 EDLN-EDLN
Flight info
| Callsign | RWL140 |
|---|---|
| Flight time | 0h 13m |
| Altitude | 5000 |
| Route | NVO2Z/13 NVO DCT ERUKI ERUKI1B/31R |
| Aircraft | PA44/L-SDFGRY/S |
Departure
| Time | 2026-04-26 16:33 |
|---|---|
| Airport | Mönchengladbach Airport (EDLN) |
Arrival
| Time | 2026-04-26 16:46 |
|---|---|
| Airport | Mönchengladbach Airport (EDLN) |
| Time | Latitude | Longitude | Altitude | Speed | Heading |
|---|---|---|---|---|---|
| 2026-04-26 16:33 | 50.98705 | 6.97386 | 5049 ft | 142 kts | 320° |
| 2026-04-26 16:33 | 50.99433 | 6.96331 | 5043 ft | 142 kts | 311° |
| 2026-04-26 16:33 | 51.00013 | 6.95056 | 5047 ft | 142 kts | 307° |
| 2026-04-26 16:33 | 51.00613 | 6.93807 | 5047 ft | 142 kts | 310° |
| 2026-04-26 16:34 | 51.01244 | 6.92597 | 5052 ft | 143 kts | 311° |
| 2026-04-26 16:34 | 51.01881 | 6.91391 | 5052 ft | 143 kts | 311° |
| 2026-04-26 16:34 | 51.02525 | 6.90182 | 5058 ft | 144 kts | 311° |
| 2026-04-26 16:34 | 51.03174 | 6.88970 | 5056 ft | 144 kts | 311° |
| 2026-04-26 16:35 | 51.03822 | 6.87750 | 5056 ft | 144 kts | 311° |
| 2026-04-26 16:35 | 51.04465 | 6.86544 | 4966 ft | 146 kts | 311° |
| 2026-04-26 16:35 | 51.05112 | 6.85317 | 4837 ft | 143 kts | 311° |
| 2026-04-26 16:35 | 51.05751 | 6.84122 | 4704 ft | 141 kts | 311° |
| 2026-04-26 16:36 | 51.06384 | 6.82936 | 4575 ft | 141 kts | 311° |
| 2026-04-26 16:36 | 51.07014 | 6.81747 | 4448 ft | 140 kts | 311° |
| 2026-04-26 16:36 | 51.07648 | 6.80557 | 4321 ft | 141 kts | 311° |
| 2026-04-26 16:36 | 51.08282 | 6.79354 | 4189 ft | 141 kts | 311° |
| 2026-04-26 16:37 | 51.08919 | 6.78154 | 4065 ft | 142 kts | 311° |
| 2026-04-26 16:37 | 51.09562 | 6.76946 | 3910 ft | 144 kts | 311° |
| 2026-04-26 16:37 | 51.10216 | 6.75707 | 3699 ft | 147 kts | 311° |
| 2026-04-26 16:37 | 51.10663 | 6.74866 | 3578 ft | 148 kts | 311° |
| 2026-04-26 16:38 | 51.11828 | 6.74008 | 3277 ft | 148 kts | 8° |
| 2026-04-26 16:38 | 51.12683 | 6.74933 | 3058 ft | 154 kts | 43° |
| 2026-04-26 16:38 | 51.13404 | 6.76190 | 2860 ft | 154 kts | 48° |
| 2026-04-26 16:38 | 51.13662 | 6.77835 | 2628 ft | 162 kts | 97° |
| 2026-04-26 16:39 | 51.13002 | 6.79274 | 2407 ft | 169 kts | 149° |
| 2026-04-26 16:39 | 51.11870 | 6.79451 | 2172 ft | 167 kts | 200° |
| 2026-04-26 16:39 | 51.11085 | 6.78240 | 1963 ft | 157 kts | 252° |
| 2026-04-26 16:39 | 51.11112 | 6.76603 | 1950 ft | 144 kts | 284° |
| 2026-04-26 16:40 | 51.11299 | 6.75059 | 1956 ft | 141 kts | 283° |
| 2026-04-26 16:40 | 51.11464 | 6.73536 | 1952 ft | 138 kts | 283° |
| 2026-04-26 16:40 | 51.11629 | 6.72041 | 1952 ft | 137 kts | 283° |
| 2026-04-26 16:40 | 51.11927 | 6.70653 | 1944 ft | 130 kts | 313° |
| 2026-04-26 16:41 | 51.12667 | 6.69883 | 1954 ft | 128 kts | 329° |
| 2026-04-26 16:41 | 51.13420 | 6.69145 | 1956 ft | 124 kts | 328° |
| 2026-04-26 16:41 | 51.14022 | 6.68183 | 1956 ft | 123 kts | 313° |
| 2026-04-26 16:41 | 51.14595 | 6.67161 | 1954 ft | 125 kts | 313° |
| 2026-04-26 16:42 | 51.15142 | 6.66115 | 1959 ft | 120 kts | 312° |
| 2026-04-26 16:42 | 51.15678 | 6.65094 | 1954 ft | 118 kts | 311° |
| 2026-04-26 16:42 | 51.16189 | 6.64081 | 1953 ft | 117 kts | 310° |
| 2026-04-26 16:42 | 51.16694 | 6.63071 | 1954 ft | 116 kts | 311° |
| 2026-04-26 16:43 | 51.17199 | 6.62068 | 1948 ft | 118 kts | 309° |
| 2026-04-26 16:43 | 51.17721 | 6.61033 | 1799 ft | 116 kts | 311° |
| 2026-04-26 16:43 | 51.18187 | 6.60106 | 1653 ft | 101 kts | 310° |
| 2026-04-26 16:43 | 51.18621 | 6.59244 | 1517 ft | 98 kts | 310° |
| 2026-04-26 16:44 | 51.19034 | 6.58421 | 1390 ft | 94 kts | 310° |
| 2026-04-26 16:44 | 51.19444 | 6.57610 | 1258 ft | 95 kts | 309° |
| 2026-04-26 16:44 | 51.19848 | 6.56792 | 1122 ft | 91 kts | 310° |
| 2026-04-26 16:44 | 51.20236 | 6.56008 | 978 ft | 89 kts | 310° |
| 2026-04-26 16:45 | 51.20621 | 6.55274 | 846 ft | 85 kts | 311° |
| 2026-04-26 16:45 | 51.20983 | 6.54528 | 719 ft | 86 kts | 311° |
| 2026-04-26 16:45 | 51.21353 | 6.53787 | 594 ft | 84 kts | 312° |
| 2026-04-26 16:45 | 51.21712 | 6.53067 | 460 ft | 83 kts | 312° |
| 2026-04-26 16:46 | 51.22077 | 6.52360 | 346 ft | 81 kts | 312° |
| 2026-04-26 16:46 | 51.22433 | 6.51651 | 239 ft | 82 kts | 311° |
| 2026-04-26 16:46 | 51.22785 | 6.50951 | 128 ft | 79 kts | 311° |
| 2026-04-26 16:46 | 51.23067 | 6.50393 | 124 ft | 47 kts | 305° |
| 2026-04-26 16:47 | 51.23127 | 6.50216 | 124 ft | 10 kts | 250° |
| 2026-04-26 16:47 | 51.23083 | 6.50147 | 125 ft | 9 kts | 218° |
| 2026-04-26 16:47 | 51.23096 | 6.50061 | 125 ft | 10 kts | 308° |
| 2026-04-26 16:47 | 51.23147 | 6.49961 | 124 ft | 11 kts | 309° |
| 2026-04-26 16:48 | 51.23166 | 6.49900 | 125 ft | 7 kts | 249° |
| 2026-04-26 16:48 | 51.23166 | 6.49822 | 124 ft | 10 kts | 310° |
| 2026-04-26 16:48 | 51.23201 | 6.49751 | 125 ft | 9 kts | 308° |
| 2026-04-26 16:48 | 51.23244 | 6.49665 | 125 ft | 9 kts | 309° |
| 2026-04-26 16:49 | 51.23235 | 6.49640 | 123 ft | 2 kts | 155° |
| 2026-04-26 16:49 | 51.23231 | 6.49648 | 124 ft | 0 kts | 128° |